WEATHER DATA

TODAY
Time Temp. Dewp. Hum. Wind dir Wind speed Wind gust Bar. 1h Prec. 24h Prec.
00:07 6.1 5.7 97 0 0 1019.7 0.1010 0.1000
00:18 6.2 5.8 97 0 0 1019.7 0.1010 0.1000
00:27 6.3 5.9 97 0 0 1019.6 0.1010 0.1000
00:37 6.4 6 97 0 0 1019.6 0.1010 0.1000
00:47 6.5 6.1 97 0 0 1019.5 0.2020 0.2000
00:58 6.6 6 96 0 0 1019.5 0.2020 0.2000
01:07 6.7 6.1 96 0 0 1019.2 0.1010 0.2000
01:17 6.8 6.2 96 0 0 1019.1 0.1010 0.2000
01:28 6.8 6.2 96 0 0 1019 0.1010 0.2000
01:38 6.9 6.3 96 0 0 1018.8 0.1010 0.2000
01:48 6.9 6.3 96 0 0 1018.7 0.0000 0.2000
01:57 7 6.4 96 0 0 1018.7 0.0000 0.2000
02:08 7.1 6.5 96 0 0 1018.6 0.0000 0.2000
02:18 7.1 6.5 96 0 0 1018.6 0.0000 0.2000
02:28 7.2 6.6 96 0 0 1018.3 0.0000 0.2000
02:38 7.2 6.6 96 0 0 1018.2 0.0000 0.2000
02:49 7.3 6.7 96 0 0 1018.1 0.0000 0.2000
02:58 7.3 6.7 96 0 0 1018 0.0000 0.2000
03:08 7.4 6.8 96 0 0 1017.8 0.0000 0.2000
03:19 7.5 6.9 96 0 0 1017.6 0.0000 0.2000
03:29 7.5 6.9 96 0 0 1017.5 0.0000 0.2000
03:38 7.6 7 96 0 0 1017.7 0.0000 0.2000
03:49 7.7 7.1 96 0 0 1017.5 0.0000 0.2000
03:59 7.8 7.2 96 0 0 1017.2 0.0000 0.2000
04:09 7.9 7.3 96 0 0 1017.1 0.0000 0.2000
04:19 8 7.4 96 0 0 1017.1 0.0000 0.2000
04:29 8 7.4 96 0 0 1017 0.1010 0.3000
04:39 8.1 7.5 96 0 0 1017 0.1010 0.3000
04:49 8.1 7.5 96 0 0 1016.9 0.1010 0.3000
04:59 8.2 7.6 96 0 0 1016.7 0.1010 0.3000
05:10 8.2 7.6 96 0 0 1016.7 0.1010 0.3000
05:19 8.2 7.6 96 0 0 1016.5 0.1010 0.3000
05:29 8.2 7.6 96 0 0 1016.5 0.0000 0.3000
05:40 8.2 7.6 96 0 0 1016.5 0.1010 0.4000
05:50 8.2 7.6 96 0 0 1016.4 0.1010 0.4000
06:00 8.2 7.6 96 0 0 1016.3 0.1010 0.4000
06:10 8.2 7.6 96 0 0 1016 0.1010 0.4000
06:20 8.2 7.6 96 0 0 1016.1 0.1010 0.4000
06:30 8.3 7.7 96 0 0 1016 0.1010 0.4000
06:40 8.3 7.7 96 0 0 1016 0.0000 0.4000
06:50 8.3 7.7 96 0 0 1016 0.0000 0.4000
07:00 8.3 7.7 96 0 0 1015.8 0.0000 0.4000
07:10 8.3 7.7 96 0 0 1015.8 0.0000 0.4000
07:20 8.3 7.7 96 0 0 1015.8 0.0000 0.4000
07:31 8.3 7.7 96 0 0 1015.9 0.0000 0.4000
07:40 8.3 7.7 96 0 0 1015.8 0.1010 0.5000
07:50 8.2 7.6 96 0 0 1015.8 0.1010 0.5000
08:01 8.1 7.5 96 0 0 1015.8 0.1010 0.5000
08:11 8 7.6 97 0 0 1015.8 0.1010 0.5000
08:20 8 7.6 97 0 0 1015.9 0.1010 0.5000
08:30 7.9 7.5 97 0 0 1015.7 0.1010 0.5000
08:41 7.9 7.5 97 0 0 1015.6 0.0000 0.5000
08:51 7.9 7.5 97 0 0 1015.7 0.1010 0.6000
09:01 7.9 7.5 97 0 0 1015.7 0.1010 0.6000
09:11 8 7.6 97 0 0 1015.7 0.1010 0.6000
09:21 8 7.4 96 0 0 1015.8 0.1010 0.6000
09:31 8 7.4 96 0 0 1016 0.1010 0.6000
09:41 8.1 7.5 96 0 0 1015.9 0.1010 0.6000
09:52 8.2 7.6 96 0 0 1015.9 0.0000 0.6000
10:01 8.3 7.7 96 0 0 1016 0.0000 0.6000
10:11 8.4 7.6 95 0 0 1016 0.0000 0.6000
10:22 8.5 7.6 94 0 0 1016 0.0000 0.6000
10:32 8.6 7.7 94 0 0 1016 0.0000 0.6000
10:42 8.6 7.5 93 0 0 1016 0.0000 0.6000
11:02 8.8 7.6 92 0 0 1016 0.0000 0.6000
11:12 8.8 7.4 91 0 0 1016 0.0000 0.6000
11:22 9 7.6 91 0 0 1016 0.0000 0.6000
11:32 9 7.4 90 0 0 1016.1 0.0000 0.6000
11:42 9.1 7.5 90 0 0 1016 0.0000 0.6000
11:52 9.3 7.6 89 0 0 1016 0.0000 0.6000
12:02 9.4 7.7 89 0 0 1015.9 0.0000 0.6000
12:13 9.4 7.3 87 0 0 1015.9 0.0000 0.6000
12:23 9.4 7.3 87 0 0 1015.9 0.0000 0.6000
12:33 9.4 7.2 86 0 0 1015.9 0.0000 0.6000
12:43 9.4 7.2 86 0 0 1016.1 0.0000 0.6000
12:53 9.5 7.3 86 0 0 1016 0.0000 0.6000
13:03 9.4 7.2 86 0 0 1016 0.0000 0.6000
13:13 9.4 7.2 86 0 0 1016 0.0000 0.6000
13:23 9.5 7.3 86 0 0 1015.9 0.0000 0.6000

DAY STATISTIC

2021-10-25
TEMPERATURE
AVERAGE
8.0
HIGH
9.5
12:53
LOW
6.1
00:07
PRESSURE
AVERAGE
1016.8
HIGH
1019.7
00:07
LOW
1015.6
08:41
DEWPOINT
AVERAGE
7.2
HIGH
7.7
06:30
LOW
5.7
00:07
HUMIDITY
AVERAGE
95
HIGH
97
00:07
LOW
86
12:33
WIND SPEED
AVERAGE
0.0
HIGH
0.0
10:40
WIND GUST
AVERAGE
0.0
HIGH
0.0
10:40
WIND DIRECTION
PREVAILING
%
PRECIPITATION
RAIN HOUR
0.2
RAIN DAY
0.6
TEMPERATURE (°C)
LOW
6.1
HIGH
9.5
AVERAGE
8.0
PRESSURE (hpa)
LOW
1015.6
HIGH
1019.7
AVERAGE
1016.8
DEVICE